createdAt,value
2022-11-10T00:01:10.851Z,8.35
2022-11-10T00:03:39.389Z,6.50
2022-11-10T00:06:08.295Z,10.98
2022-11-10T00:08:35.593Z,6.90
2022-11-10T00:11:07.226Z,7.90
2022-11-10T00:13:57.039Z,7.27
2022-11-10T00:16:42.961Z,6.28
2022-11-10T00:19:10.075Z,7.68
2022-11-10T00:21:37.842Z,7.57
2022-11-10T00:24:06.022Z,6.88
2022-11-10T00:26:32.848Z,6.57
2022-11-10T00:28:59.766Z,7.43
2022-11-10T00:31:28.599Z,6.35
2022-11-10T00:33:56.044Z,6.00
2022-11-10T00:36:23.079Z,6.30
2022-11-10T00:38:53.010Z,7.45
2022-11-10T00:41:20.301Z,11.20
2022-11-10T00:43:47.920Z,7.22
2022-11-10T00:46:15.267Z,6.82
2022-11-10T00:48:42.101Z,6.47
2022-11-10T00:51:24.727Z,8.00
2022-11-10T00:53:52.283Z,6.17
2022-11-10T00:56:20.112Z,6.77
2022-11-10T00:58:47.365Z,6.60
2022-11-10T01:01:15.851Z,8.23
2022-11-10T01:03:42.766Z,5.88
2022-11-10T01:06:12.529Z,6.88
2022-11-10T01:08:40.373Z,6.50
2022-11-10T01:11:10.695Z,5.75
2022-11-10T01:13:37.514Z,5.77
2022-11-10T01:16:09.674Z,6.05
2022-11-10T01:18:37.343Z,7.10
2022-11-10T01:21:05.255Z,7.47
2022-11-10T01:23:32.461Z,7.40
2022-11-10T01:26:00.727Z,6.32
2022-11-10T01:28:27.836Z,7.50
2022-11-10T01:31:02.652Z,6.97
2022-11-10T01:33:29.610Z,6.53
2022-11-10T01:35:56.614Z,5.45
2022-11-10T01:38:24.214Z,6.13
2022-11-10T01:40:51.109Z,5.75
2022-11-10T01:43:18.003Z,4.88
2022-11-10T01:45:52.577Z,4.70
2022-11-10T01:48:28.775Z,5.53
2022-11-10T01:50:59.252Z,6.20
2022-11-10T01:53:28.896Z,4.87
2022-11-10T01:55:57.124Z,3.70
2022-11-10T01:58:30.456Z,5.82
2022-11-10T02:00:57.709Z,3.95
2022-11-10T02:03:37.861Z,5.37
2022-11-10T02:06:05.855Z,3.15
2022-11-10T02:08:32.929Z,3.25
2022-11-10T02:10:59.747Z,2.70
2022-11-10T02:13:26.603Z,4.57
2022-11-10T02:15:53.491Z,2.50
2022-11-10T02:18:20.474Z,3.15
2022-11-10T02:20:47.433Z,2.60
2022-11-10T02:23:35.824Z,2.50
2022-11-10T02:26:04.797Z,2.17
2022-11-10T02:28:36.947Z,2.30
2022-11-10T02:31:05.070Z,1.95
2022-11-10T02:33:32.207Z,2.67
2022-11-10T02:35:59.027Z,1.90
2022-11-10T02:38:25.856Z,3.45
2022-11-10T02:40:52.711Z,1.60
2022-11-10T02:43:20.438Z,1.50
2022-11-10T02:45:47.465Z,2.03
2022-11-10T02:48:15.792Z,4.70
2022-11-10T02:50:42.903Z,2.20
2022-11-10T02:53:09.978Z,4.20
2022-11-10T02:55:36.919Z,4.72
2022-11-10T02:58:03.859Z,2.65
2022-11-10T03:00:30.686Z,3.10
2022-11-10T03:02:58.951Z,5.50
2022-11-10T03:05:25.811Z,2.20
2022-11-10T03:07:57.376Z,4.88
2022-11-10T03:10:24.695Z,2.28
2022-11-10T03:12:58.161Z,2.75
2022-11-10T03:15:25.492Z,5.78
2022-11-10T03:17:53.103Z,5.00
2022-11-10T03:20:20.375Z,3.97
2022-11-10T03:22:47.264Z,2.47
2022-11-10T03:25:14.640Z,3.25
2022-11-10T03:27:41.480Z,4.75
2022-11-10T03:30:08.645Z,5.43
2022-11-10T03:32:35.428Z,4.40
2022-11-10T03:35:02.309Z,4.57
2022-11-10T03:37:29.130Z,2.95
2022-11-10T03:39:56.004Z,5.10
2022-11-10T03:42:22.800Z,3.28
2022-11-10T03:44:49.646Z,4.55
2022-11-10T03:47:16.443Z,2.35
2022-11-10T03:49:43.330Z,2.38
2022-11-10T03:52:10.115Z,5.38
2022-11-10T03:54:36.918Z,4.00
2022-11-10T03:57:04.404Z,5.03
2022-11-10T03:59:31.469Z,3.80
2022-11-10T04:01:58.314Z,2.83
2022-11-10T04:04:43.847Z,3.58
2022-11-10T04:07:32.300Z,3.53
2022-11-10T04:09:59.149Z,3.35
2022-11-10T04:12:44.398Z,5.95
2022-11-10T04:15:30.869Z,2.75
2022-11-10T04:18:16.459Z,4.97
2022-11-10T04:20:43.715Z,3.92
2022-11-10T04:23:28.898Z,3.22
2022-11-10T04:26:18.112Z,4.07
2022-11-10T04:28:49.793Z,3.40
2022-11-10T04:31:18.719Z,3.65
2022-11-10T04:33:45.833Z,5.97
2022-11-10T04:36:18.815Z,3.35
2022-11-10T04:38:46.230Z,6.03
2022-11-10T04:41:13.702Z,2.88
2022-11-10T04:43:40.821Z,5.53
2022-11-10T04:46:14.559Z,5.07
2022-11-10T04:48:41.396Z,3.30
2022-11-10T04:51:08.331Z,5.95
2022-11-10T04:53:35.204Z,4.72
2022-11-10T04:56:02.149Z,3.60
2022-11-10T04:58:29.013Z,4.72
2022-11-10T05:00:55.910Z,2.88
2022-11-10T05:03:23.008Z,4.95
2022-11-10T05:05:50.102Z,6.43
2022-11-10T05:08:16.910Z,5.57
2022-11-10T05:10:44.401Z,4.13
2022-11-10T05:13:11.524Z,3.15
2022-11-10T05:15:41.448Z,4.00
2022-11-10T05:18:08.502Z,7.03
2022-11-10T05:20:36.129Z,6.20
2022-11-10T05:23:21.960Z,7.35
2022-11-10T05:25:49.021Z,5.35
2022-11-10T05:28:17.037Z,4.80
2022-11-10T05:30:44.498Z,4.95
2022-11-10T05:33:11.654Z,3.20
2022-11-10T05:35:39.410Z,5.05
2022-11-10T05:38:06.952Z,7.65
2022-11-10T05:40:34.442Z,3.75
2022-11-10T05:43:01.816Z,5.78
2022-11-10T05:45:29.563Z,4.28
2022-11-10T05:47:56.675Z,2.60
2022-11-10T05:50:24.136Z,7.07
2022-11-10T05:52:54.690Z,5.13
2022-11-10T05:55:24.883Z,4.22
2022-11-10T05:57:52.870Z,4.97
2022-11-10T06:00:22.797Z,4.05
2022-11-10T06:03:07.259Z,3.33
2022-11-10T06:05:36.029Z,4.55
2022-11-10T06:08:04.782Z,5.20
2022-11-10T06:10:33.032Z,3.47
2022-11-10T06:13:00.309Z,7.30
2022-11-10T06:15:27.421Z,2.95
2022-11-10T06:17:55.144Z,4.60
2022-11-10T06:20:22.651Z,4.40
2022-11-10T06:23:06.068Z,7.00
2022-11-10T06:25:35.475Z,5.20
2022-11-10T06:28:03.537Z,8.65
2022-11-10T06:30:43.811Z,5.53
2022-11-10T06:33:10.819Z,6.17
2022-11-10T06:35:37.860Z,5.35
2022-11-10T06:38:11.981Z,4.83
2022-11-10T06:40:38.873Z,2.63
2022-11-10T06:43:05.810Z,4.50
2022-11-10T06:45:32.640Z,3.67
2022-11-10T06:48:07.548Z,4.13
2022-11-10T06:50:34.787Z,3.10
2022-11-10T06:53:01.908Z,4.60
2022-11-10T06:55:29.456Z,3.90
2022-11-10T06:57:58.016Z,4.50
2022-11-10T07:00:28.558Z,4.57
2022-11-10T07:03:06.753Z,4.10
2022-11-10T07:05:35.384Z,4.85
2022-11-10T07:08:16.016Z,3.45
2022-11-10T07:10:43.705Z,5.63
2022-11-10T07:13:11.181Z,9.02
2022-11-10T07:15:38.260Z,6.15
2022-11-10T07:18:05.493Z,11.63
2022-11-10T07:20:32.865Z,8.43
2022-11-10T07:23:05.258Z,12.27
2022-11-10T07:25:38.090Z,5.00
2022-11-10T07:28:11.892Z,4.05
2022-11-10T07:31:04.646Z,5.43
2022-11-10T07:33:53.287Z,5.13
2022-11-10T07:36:29.448Z,5.33
2022-11-10T07:38:59.215Z,3.87
2022-11-10T07:41:33.735Z,4.13
2022-11-10T07:44:06.585Z,9.30
2022-11-10T07:55:26.097Z,10.43
2022-11-10T07:58:48.359Z,5.77
2022-11-10T08:10:23.757Z,5.00
2022-11-10T08:15:09.373Z,3.07
2022-11-10T08:41:38.503Z,7.77
2022-11-10T08:47:09.253Z,9.23
2022-11-10T08:49:39.201Z,5.70
2022-11-10T08:52:09.218Z,8.80
2022-11-10T08:54:53.432Z,5.40
2022-11-10T08:57:20.486Z,3.80
2022-11-10T09:00:07.715Z,5.53
2022-11-10T09:03:15.915Z,7.53
2022-11-10T09:06:04.260Z,4.67
2022-11-10T09:12:09.842Z,3.03
2022-11-10T09:16:57.957Z,3.10
2022-11-10T09:26:35.812Z,5.67
2022-11-10T09:33:17.269Z,2.60
2022-11-10T09:36:08.664Z,4.13
2022-11-10T09:38:51.614Z,7.13
2022-11-10T09:45:09.001Z,5.20
2022-11-10T09:51:01.153Z,2.90
2022-11-10T09:53:38.724Z,2.80
2022-11-10T09:56:16.144Z,2.87
2022-11-10T09:59:13.292Z,3.40
2022-11-10T10:02:12.400Z,4.10
2022-11-10T10:04:58.711Z,3.90
2022-11-10T10:08:11.395Z,4.17
2022-11-10T10:11:38.839Z,3.63
2022-11-10T10:14:38.575Z,4.97
2022-11-10T10:17:59.117Z,4.60
2022-11-10T10:20:48.743Z,4.40
2022-11-10T10:27:37.430Z,4.90
2022-11-10T10:33:39.713Z,2.43
2022-11-10T10:36:27.054Z,3.80
2022-11-10T10:39:01.655Z,3.57
2022-11-10T10:41:33.743Z,4.50
2022-11-10T10:51:21.472Z,3.10
2022-11-10T10:55:04.534Z,4.60
2022-11-10T11:01:56.693Z,4.80
2022-11-10T11:04:37.051Z,5.50
2022-11-10T11:07:32.430Z,5.13
2022-11-10T11:10:35.471Z,5.90
2022-11-10T11:13:26.911Z,2.67
2022-11-10T11:16:02.013Z,2.33
2022-11-10T11:18:31.370Z,5.13
2022-11-10T11:21:29.636Z,1.33
2022-11-10T11:28:10.714Z,2.90
2022-11-10T11:51:33.600Z,3.60
2022-11-10T11:54:03.013Z,4.47
2022-11-10T11:56:53.634Z,2.37
2022-11-10T12:00:06.144Z,3.10
2022-11-10T12:09:58.627Z,1.73
2022-11-10T12:13:25.556Z,3.47
2022-11-10T12:16:23.367Z,4.10
2022-11-10T12:22:31.396Z,5.93
2022-11-10T12:25:43.833Z,3.00
2022-11-10T12:28:28.014Z,4.37
2022-11-10T12:34:23.261Z,2.50
2022-11-10T12:37:09.536Z,2.77
2022-11-10T12:44:29.826Z,2.70
2022-11-10T12:47:16.557Z,5.70
2022-11-10T12:50:06.295Z,3.10
2022-11-10T12:53:12.888Z,2.20
2022-11-10T13:21:44.791Z,4.13
2022-11-10T13:35:55.507Z,3.80
2022-11-10T13:38:39.640Z,1.80
2022-11-10T13:41:45.256Z,2.13
2022-11-10T13:44:28.304Z,2.10
2022-11-10T13:47:13.524Z,2.10
2022-11-10T13:49:43.628Z,4.67
2022-11-10T13:52:18.559Z,3.57
2022-11-10T13:55:09.438Z,2.43
2022-11-10T13:57:53.947Z,2.37
2022-11-10T14:00:21.091Z,2.37
2022-11-10T14:02:55.928Z,2.27
2022-11-10T14:05:28.843Z,3.10
2022-11-10T14:08:21.521Z,2.20
2022-11-10T14:10:55.891Z,3.70
2022-11-10T14:13:45.758Z,3.23
2022-11-10T14:16:18.854Z,1.80
2022-11-10T14:19:07.013Z,2.87
2022-11-10T14:21:43.466Z,2.07
2022-11-10T14:24:42.603Z,2.73
2022-11-10T14:27:21.633Z,2.33
2022-11-10T14:29:56.142Z,2.90
2022-11-10T14:33:15.230Z,3.57
2022-11-10T14:35:25.989Z,2.67
2022-11-10T15:23:35.175Z,2.27
2022-11-10T16:05:27.669Z,4.97
2022-11-10T16:08:19.301Z,5.23
2022-11-10T16:10:48.408Z,4.23
2022-11-10T16:13:24.873Z,5.33
2022-11-10T16:15:56.565Z,5.77
2022-11-10T16:18:29.459Z,3.60
2022-11-10T16:20:57.003Z,7.40
2022-11-10T16:23:25.722Z,7.30
2022-11-10T16:25:54.702Z,5.80
2022-11-10T16:28:27.360Z,4.80
2022-11-10T16:30:55.302Z,11.47
2022-11-10T16:33:24.609Z,12.20
2022-11-10T16:35:53.824Z,4.30
2022-11-10T16:38:26.726Z,5.33
2022-11-10T16:41:00.007Z,6.30
2022-11-10T16:43:28.074Z,9.27
2022-11-10T16:45:57.649Z,6.53
2022-11-10T16:48:30.664Z,7.73
2022-11-10T16:50:59.094Z,6.10
2022-11-10T16:53:29.003Z,6.83
2022-11-10T16:55:55.963Z,7.73
2022-11-10T16:58:26.043Z,8.13
2022-11-10T17:00:55.446Z,5.10
2022-11-10T17:03:33.860Z,12.20
2022-11-10T17:06:01.078Z,10.13
2022-11-10T17:08:30.132Z,10.30
2022-11-10T17:10:56.992Z,9.05
2022-11-10T17:13:24.570Z,8.13
2022-11-10T17:15:54.193Z,16.27
2022-11-10T17:18:26.791Z,11.40
2022-11-10T17:20:53.668Z,10.50
2022-11-10T17:23:23.298Z,12.05
2022-11-10T17:25:51.082Z,20.33
2022-11-10T17:28:19.037Z,10.35
2022-11-10T17:30:46.295Z,9.10
2022-11-10T17:33:13.719Z,11.35
2022-11-10T17:35:49.143Z,9.07
2022-11-10T17:38:30.835Z,6.03
2022-11-10T17:40:57.646Z,8.88
2022-11-10T17:43:25.337Z,12.17
2022-11-10T17:45:52.615Z,7.53
2022-11-10T17:48:19.430Z,8.43
2022-11-10T17:50:49.149Z,9.65
2022-11-10T17:53:16.573Z,12.85
2022-11-10T17:55:43.461Z,8.95
2022-11-10T17:58:10.986Z,10.52
2022-11-10T18:00:38.019Z,13.38
2022-11-10T18:03:08.634Z,25.90
2022-11-10T18:05:35.921Z,16.13
2022-11-10T18:08:02.855Z,22.52
2022-11-10T18:10:29.696Z,15.30
2022-11-10T18:12:56.484Z,18.75
2022-11-10T18:15:23.267Z,11.77
2022-11-10T18:17:50.095Z,15.43
2022-11-10T18:20:17.062Z,11.73
2022-11-10T18:22:43.846Z,14.07
2022-11-10T18:25:10.722Z,13.35
2022-11-10T18:27:37.883Z,12.77
2022-11-10T18:30:05.751Z,10.57
2022-11-10T18:32:32.636Z,11.15
2022-11-10T18:34:59.435Z,9.70
2022-11-10T18:37:26.960Z,11.90
2022-11-10T18:39:53.830Z,12.13
2022-11-10T18:42:20.684Z,12.23
2022-11-10T18:44:47.610Z,9.45
2022-11-10T18:47:14.464Z,12.10
2022-11-10T18:49:41.327Z,12.73
2022-11-10T18:52:08.854Z,12.85
2022-11-10T18:54:35.764Z,11.77
2022-11-10T18:57:02.539Z,14.38
2022-11-10T18:59:29.380Z,13.05
2022-11-10T19:01:56.512Z,12.57
2022-11-10T19:04:23.512Z,16.35
2022-11-10T19:06:50.330Z,16.20
2022-11-10T19:09:17.353Z,9.70
2022-11-10T19:11:44.441Z,17.17
2022-11-10T19:14:11.239Z,11.98
2022-11-10T19:16:38.028Z,11.63
2022-11-10T19:19:04.863Z,17.85
2022-11-10T19:21:31.802Z,12.70
2022-11-10T19:23:58.967Z,9.48
2022-11-10T19:26:27.223Z,10.95
2022-11-10T19:28:55.634Z,17.83
2022-11-10T19:31:24.251Z,14.82
2022-11-10T19:33:54.800Z,13.23
2022-11-10T19:36:26.690Z,15.35
2022-11-10T19:38:57.384Z,10.52
2022-11-10T19:41:27.057Z,15.10
2022-11-10T19:43:53.998Z,17.85
2022-11-10T19:46:24.461Z,13.88
2022-11-10T19:48:51.631Z,17.98
2022-11-10T19:51:19.159Z,15.98
2022-11-10T19:53:47.585Z,15.60
2022-11-10T19:56:16.910Z,14.35
2022-11-10T19:58:43.995Z,17.00
2022-11-10T20:01:11.738Z,13.32
2022-11-10T20:03:39.466Z,16.15
2022-11-10T20:06:09.819Z,14.00
2022-11-10T20:08:37.536Z,17.08
2022-11-10T20:11:13.269Z,18.15
2022-11-10T20:13:40.391Z,14.63
2022-11-10T20:16:09.954Z,17.42
2022-11-10T20:18:39.566Z,19.67
2022-11-10T20:21:09.115Z,13.52
2022-11-10T20:23:36.224Z,15.15
2022-11-10T20:26:12.464Z,16.30
2022-11-10T20:28:39.832Z,15.43
2022-11-10T20:31:20.636Z,14.82
2022-11-10T20:33:48.662Z,20.42
2022-11-10T20:36:21.421Z,12.38
2022-11-10T20:38:52.326Z,15.55
2022-11-10T20:41:22.267Z,14.60
2022-11-10T20:43:49.534Z,13.63
2022-11-10T20:46:40.099Z,16.00
2022-11-10T20:49:06.140Z,18.17
2022-11-10T20:51:32.934Z,15.85
2022-11-10T20:54:00.882Z,19.65
2022-11-10T20:56:29.878Z,13.40
2022-11-10T20:58:57.772Z,14.27
2022-11-10T21:01:25.279Z,19.45
2022-11-10T21:03:52.784Z,12.95
2022-11-10T21:06:19.639Z,14.32
2022-11-10T21:08:46.408Z,11.88
2022-11-10T21:11:33.179Z,14.73
2022-11-10T21:14:01.509Z,18.13
2022-11-10T21:16:28.466Z,11.85
2022-11-10T21:18:56.402Z,13.95
2022-11-10T21:21:34.079Z,14.52
2022-11-10T21:24:05.746Z,12.73
2022-11-10T21:26:34.321Z,12.27
2022-11-10T21:29:02.111Z,12.70
2022-11-10T21:31:30.612Z,18.80
2022-11-10T21:33:58.404Z,22.55
2022-11-10T21:36:29.258Z,22.63
2022-11-10T21:38:57.884Z,10.23
2022-11-10T21:41:25.590Z,15.48
2022-11-10T21:43:52.433Z,16.10
2022-11-10T21:46:19.954Z,11.70
2022-11-10T21:48:46.842Z,14.63
2022-11-10T21:51:14.426Z,17.65
2022-11-10T21:53:44.352Z,14.02
2022-11-10T21:56:12.070Z,13.30
2022-11-10T21:58:39.379Z,15.52
2022-11-10T22:01:06.411Z,14.52
2022-11-10T22:03:35.174Z,12.50
2022-11-10T22:06:06.936Z,14.98
2022-11-10T22:08:35.002Z,13.50
2022-11-10T22:11:20.761Z,16.55
2022-11-10T22:14:06.205Z,12.48
2022-11-10T22:17:00.796Z,22.45
2022-11-10T22:19:27.612Z,14.05
2022-11-10T22:21:55.239Z,13.43
2022-11-10T22:24:24.229Z,19.63
2022-11-10T22:26:51.319Z,16.83
2022-11-10T22:29:18.255Z,14.27
2022-11-10T22:31:45.102Z,16.40
2022-11-10T22:34:11.959Z,17.65
2022-11-10T22:36:38.892Z,17.23
2022-11-10T22:39:05.726Z,17.20
2022-11-10T22:41:51.072Z,15.93
2022-11-10T22:44:20.313Z,18.73
2022-11-10T22:46:52.207Z,17.10
2022-11-10T22:49:22.876Z,13.35
2022-11-10T22:51:55.327Z,13.90
2022-11-10T22:54:24.085Z,13.57
2022-11-10T22:56:51.795Z,14.65
2022-11-10T22:59:19.356Z,13.20
2022-11-10T23:01:46.304Z,16.40
2022-11-10T23:04:15.851Z,14.10
2022-11-10T23:06:42.994Z,18.67
2022-11-10T23:09:09.864Z,14.10
2022-11-10T23:11:36.819Z,13.30
2022-11-10T23:14:03.630Z,13.65
2022-11-10T23:16:34.264Z,12.05
2022-11-10T23:19:01.773Z,17.60
2022-11-10T23:21:30.445Z,13.85
2022-11-10T23:23:57.516Z,15.88
2022-11-10T23:26:34.065Z,15.35
2022-11-10T23:29:00.912Z,12.95
2022-11-10T23:31:28.607Z,14.68
2022-11-10T23:33:56.966Z,10.93
2022-11-10T23:36:26.075Z,16.10
2022-11-10T23:38:54.140Z,14.95
2022-11-10T23:41:28.890Z,12.50
2022-11-10T23:43:56.136Z,12.25
2022-11-10T23:46:22.947Z,10.38
2022-11-10T23:48:49.770Z,11.20
2022-11-10T23:51:17.006Z,10.35
2022-11-10T23:53:43.854Z,12.63
2022-11-10T23:56:14.269Z,15.18
2022-11-10T23:58:41.644Z,9.80
